sensor_id;sensor_type;location;lat;lon;timestamp;P1;durP1;ratioP1;P2;durP2;ratioP2
17854;SDS011;9053;53.358;6.382;2022-07-22T00:00:48;3.13;;;1.77;;
17854;SDS011;9053;53.358;6.382;2022-07-22T00:03:18;4.65;;;1.77;;
17854;SDS011;9053;53.358;6.382;2022-07-22T00:05:48;6.35;;;2.47;;
17854;SDS011;9053;53.358;6.382;2022-07-22T00:08:17;4.88;;;2.35;;
17854;SDS011;9053;53.358;6.382;2022-07-22T00:10:47;4.72;;;2.00;;
17854;SDS011;9053;53.358;6.382;2022-07-22T00:13:20;5.25;;;2.25;;
17854;SDS011;9053;53.358;6.382;2022-07-22T00:15:49;4.80;;;2.30;;
17854;SDS011;9053;53.358;6.382;2022-07-22T00:18:19;3.53;;;1.70;;
17854;SDS011;9053;53.358;6.382;2022-07-22T00:20:49;4.90;;;2.10;;
17854;SDS011;9053;53.358;6.382;2022-07-22T00:23:19;4.97;;;1.90;;
17854;SDS011;9053;53.358;6.382;2022-07-22T00:25:49;5.00;;;1.90;;
17854;SDS011;9053;53.358;6.382;2022-07-22T00:28:22;7.13;;;2.40;;
17854;SDS011;9053;53.358;6.382;2022-07-22T00:30:52;6.88;;;2.10;;
17854;SDS011;9053;53.358;6.382;2022-07-22T00:33:23;4.68;;;2.03;;
17854;SDS011;9053;53.358;6.382;2022-07-22T00:35:53;3.60;;;1.60;;
17854;SDS011;9053;53.358;6.382;2022-07-22T00:38:22;3.08;;;1.55;;
17854;SDS011;9053;53.358;6.382;2022-07-22T00:40:52;4.55;;;1.50;;
17854;SDS011;9053;53.358;6.382;2022-07-22T00:43:24;3.92;;;1.50;;
17854;SDS011;9053;53.358;6.382;2022-07-22T00:45:54;4.57;;;1.40;;
17854;SDS011;9053;53.358;6.382;2022-07-22T00:48:24;2.92;;;1.55;;
17854;SDS011;9053;53.358;6.382;2022-07-22T00:50:54;3.40;;;1.80;;
17854;SDS011;9053;53.358;6.382;2022-07-22T00:53:23;5.20;;;1.65;;
17854;SDS011;9053;53.358;6.382;2022-07-22T00:55:53;10.82;;;2.28;;
17854;SDS011;9053;53.358;6.382;2022-07-22T00:58:25;3.10;;;1.70;;
17854;SDS011;9053;53.358;6.382;2022-07-22T01:00:55;3.10;;;1.55;;
17854;SDS011;9053;53.358;6.382;2022-07-22T01:03:25;3.20;;;1.67;;
17854;SDS011;9053;53.358;6.382;2022-07-22T01:05:55;2.60;;;1.40;;
17854;SDS011;9053;53.358;6.382;2022-07-22T01:08:25;3.97;;;1.55;;
17854;SDS011;9053;53.358;6.382;2022-07-22T01:11:05;4.90;;;1.60;;
17854;SDS011;9053;53.358;6.382;2022-07-22T01:13:38;4.20;;;1.70;;
17854;SDS011;9053;53.358;6.382;2022-07-22T01:16:09;2.40;;;1.40;;
17854;SDS011;9053;53.358;6.382;2022-07-22T01:18:41;2.72;;;1.63;;
17854;SDS011;9053;53.358;6.382;2022-07-22T01:21:14;3.38;;;1.63;;
17854;SDS011;9053;53.358;6.382;2022-07-22T01:23:44;3.22;;;1.67;;
17854;SDS011;9053;53.358;6.382;2022-07-22T01:26:15;2.67;;;1.30;;
17854;SDS011;9053;53.358;6.382;2022-07-22T01:28:44;3.08;;;1.42;;
17854;SDS011;9053;53.358;6.382;2022-07-22T01:31:14;3.38;;;1.60;;
17854;SDS011;9053;53.358;6.382;2022-07-22T01:33:44;3.92;;;1.75;;
17854;SDS011;9053;53.358;6.382;2022-07-22T01:36:16;5.40;;;1.70;;
17854;SDS011;9053;53.358;6.382;2022-07-22T01:38:46;2.95;;;1.50;;
17854;SDS011;9053;53.358;6.382;2022-07-22T01:41:16;3.40;;;1.58;;
17854;SDS011;9053;53.358;6.382;2022-07-22T01:43:46;2.95;;;1.40;;
17854;SDS011;9053;53.358;6.382;2022-07-22T01:46:16;2.65;;;1.42;;
17854;SDS011;9053;53.358;6.382;2022-07-22T01:48:46;4.93;;;1.98;;
17854;SDS011;9053;53.358;6.382;2022-07-22T01:51:18;4.00;;;1.75;;
17854;SDS011;9053;53.358;6.382;2022-07-22T01:53:49;5.53;;;1.77;;
17854;SDS011;9053;53.358;6.382;2022-07-22T01:56:18;1.92;;;1.30;;
17854;SDS011;9053;53.358;6.382;2022-07-22T01:58:48;2.53;;;1.48;;
17854;SDS011;9053;53.358;6.382;2022-07-22T02:01:19;2.75;;;1.50;;
17854;SDS011;9053;53.358;6.382;2022-07-22T02:03:51;2.45;;;1.30;;
17854;SDS011;9053;53.358;6.382;2022-07-22T02:06:23;2.90;;;1.30;;
17854;SDS011;9053;53.358;6.382;2022-07-22T02:08:53;2.47;;;1.63;;
17854;SDS011;9053;53.358;6.382;2022-07-22T02:11:23;4.40;;;1.50;;
17854;SDS011;9053;53.358;6.382;2022-07-22T02:13:53;5.28;;;1.70;;
17854;SDS011;9053;53.358;6.382;2022-07-22T02:16:23;3.50;;;1.50;;
17854;SDS011;9053;53.358;6.382;2022-07-22T02:18:53;2.92;;;1.52;;
17854;SDS011;9053;53.358;6.382;2022-07-22T02:21:26;3.67;;;1.50;;
17854;SDS011;9053;53.358;6.382;2022-07-22T02:23:56;3.35;;;1.60;;
17854;SDS011;9053;53.358;6.382;2022-07-22T02:26:26;3.33;;;1.63;;
17854;SDS011;9053;53.358;6.382;2022-07-22T02:28:55;1.95;;;1.48;;
17854;SDS011;9053;53.358;6.382;2022-07-22T02:31:26;3.35;;;1.40;;
17854;SDS011;9053;53.358;6.382;2022-07-22T02:33:56;2.50;;;1.40;;
17854;SDS011;9053;53.358;6.382;2022-07-22T02:36:28;3.90;;;1.40;;
17854;SDS011;9053;53.358;6.382;2022-07-22T02:38:58;2.40;;;1.30;;
17854;SDS011;9053;53.358;6.382;2022-07-22T02:41:28;2.35;;;1.40;;
17854;SDS011;9053;53.358;6.382;2022-07-22T02:43:58;3.50;;;1.42;;
17854;SDS011;9053;53.358;6.382;2022-07-22T02:46:28;2.85;;;1.65;;
17854;SDS011;9053;53.358;6.382;2022-07-22T02:48:58;5.40;;;1.50;;
17854;SDS011;9053;53.358;6.382;2022-07-22T02:51:31;3.92;;;1.58;;
17854;SDS011;9053;53.358;6.382;2022-07-22T02:54:01;4.43;;;1.70;;
17854;SDS011;9053;53.358;6.382;2022-07-22T02:56:31;3.35;;;1.60;;
17854;SDS011;9053;53.358;6.382;2022-07-22T02:59:01;4.10;;;1.70;;
17854;SDS011;9053;53.358;6.382;2022-07-22T03:01:31;3.33;;;1.50;;
17854;SDS011;9053;53.358;6.382;2022-07-22T03:04:01;6.05;;;1.50;;
17854;SDS011;9053;53.358;6.382;2022-07-22T03:06:33;4.47;;;1.80;;
17854;SDS011;9053;53.358;6.382;2022-07-22T03:09:03;2.85;;;1.30;;
17854;SDS011;9053;53.358;6.382;2022-07-22T03:11:33;5.75;;;1.85;;
17854;SDS011;9053;53.358;6.382;2022-07-22T03:14:03;3.80;;;1.27;;
17854;SDS011;9053;53.358;6.382;2022-07-22T03:16:33;3.20;;;1.47;;
17854;SDS011;9053;53.358;6.382;2022-07-22T03:19:03;2.70;;;1.38;;
17854;SDS011;9053;53.358;6.382;2022-07-22T03:21:35;3.97;;;1.48;;
17854;SDS011;9053;53.358;6.382;2022-07-22T03:24:05;3.80;;;1.30;;
17854;SDS011;9053;53.358;6.382;2022-07-22T03:26:35;4.28;;;1.40;;
17854;SDS011;9053;53.358;6.382;2022-07-22T03:29:05;3.88;;;1.40;;
17854;SDS011;9053;53.358;6.382;2022-07-22T03:31:34;4.43;;;1.50;;
17854;SDS011;9053;53.358;6.382;2022-07-22T03:34:04;6.50;;;1.73;;
17854;SDS011;9053;53.358;6.382;2022-07-22T03:36:36;4.50;;;1.52;;
17854;SDS011;9053;53.358;6.382;2022-07-22T03:39:06;3.00;;;1.40;;
17854;SDS011;9053;53.358;6.382;2022-07-22T03:41:36;3.22;;;1.42;;
17854;SDS011;9053;53.358;6.382;2022-07-22T03:44:06;4.25;;;1.75;;
17854;SDS011;9053;53.358;6.382;2022-07-22T03:46:36;5.70;;;1.90;;
17854;SDS011;9053;53.358;6.382;2022-07-22T03:49:05;1.50;;;1.35;;
17854;SDS011;9053;53.358;6.382;2022-07-22T03:51:38;4.15;;;1.60;;
17854;SDS011;9053;53.358;6.382;2022-07-22T03:54:08;4.30;;;1.75;;
17854;SDS011;9053;53.358;6.382;2022-07-22T03:56:37;5.97;;;1.65;;
17854;SDS011;9053;53.358;6.382;2022-07-22T03:59:07;3.45;;;1.30;;
17854;SDS011;9053;53.358;6.382;2022-07-22T04:01:37;2.38;;;1.50;;
17854;SDS011;9053;53.358;6.382;2022-07-22T04:04:07;2.70;;;0.90;;
17854;SDS011;9053;53.358;6.382;2022-07-22T04:06:40;3.30;;;1.40;;
17854;SDS011;9053;53.358;6.382;2022-07-22T04:09:11;2.03;;;1.13;;
17854;SDS011;9053;53.358;6.382;2022-07-22T04:11:41;2.90;;;1.17;;
17854;SDS011;9053;53.358;6.382;2022-07-22T04:14:10;3.10;;;1.13;;
17854;SDS011;9053;53.358;6.382;2022-07-22T04:16:41;3.22;;;1.00;;
17854;SDS011;9053;53.358;6.382;2022-07-22T04:19:12;3.63;;;1.60;;
17854;SDS011;9053;53.358;6.382;2022-07-22T04:21:45;3.33;;;1.30;;
17854;SDS011;9053;53.358;6.382;2022-07-22T04:24:14;4.22;;;1.40;;
17854;SDS011;9053;53.358;6.382;2022-07-22T04:26:44;3.42;;;1.13;;
17854;SDS011;9053;53.358;6.382;2022-07-22T04:29:14;2.72;;;1.30;;
17854;SDS011;9053;53.358;6.382;2022-07-22T04:31:44;2.88;;;1.30;;
17854;SDS011;9053;53.358;6.382;2022-07-22T04:34:13;3.70;;;1.58;;
17854;SDS011;9053;53.358;6.382;2022-07-22T04:36:46;2.17;;;1.15;;
17854;SDS011;9053;53.358;6.382;2022-07-22T04:39:16;2.17;;;1.08;;
17854;SDS011;9053;53.358;6.382;2022-07-22T04:41:46;2.75;;;1.20;;
17854;SDS011;9053;53.358;6.382;2022-07-22T04:44:15;4.80;;;1.40;;
17854;SDS011;9053;53.358;6.382;2022-07-22T04:46:45;4.90;;;1.50;;
17854;SDS011;9053;53.358;6.382;2022-07-22T04:49:15;4.72;;;1.67;;
17854;SDS011;9053;53.358;6.382;2022-07-22T04:51:47;3.05;;;1.25;;
17854;SDS011;9053;53.358;6.382;2022-07-22T04:54:18;2.95;;;1.40;;
17854;SDS011;9053;53.358;6.382;2022-07-22T04:56:48;2.30;;;1.35;;
17854;SDS011;9053;53.358;6.382;2022-07-22T04:59:18;2.67;;;1.60;;
17854;SDS011;9053;53.358;6.382;2022-07-22T05:01:49;5.50;;;1.40;;
17854;SDS011;9053;53.358;6.382;2022-07-22T05:04:19;3.22;;;1.58;;
17854;SDS011;9053;53.358;6.382;2022-07-22T05:06:52;3.15;;;1.58;;
17854;SDS011;9053;53.358;6.382;2022-07-22T05:09:21;3.22;;;1.38;;
17854;SDS011;9053;53.358;6.382;2022-07-22T05:11:51;2.72;;;1.17;;
17854;SDS011;9053;53.358;6.382;2022-07-22T05:14:21;2.40;;;1.10;;
17854;SDS011;9053;53.358;6.382;2022-07-22T05:16:50;4.15;;;1.35;;
17854;SDS011;9053;53.358;6.382;2022-07-22T05:19:20;2.08;;;1.40;;
17854;SDS011;9053;53.358;6.382;2022-07-22T05:21:53;3.10;;;1.35;;
17854;SDS011;9053;53.358;6.382;2022-07-22T05:24:22;2.38;;;1.40;;
17854;SDS011;9053;53.358;6.382;2022-07-22T05:26:52;3.70;;;1.60;;
17854;SDS011;9053;53.358;6.382;2022-07-22T05:29:23;4.13;;;1.17;;
17854;SDS011;9053;53.358;6.382;2022-07-22T05:31:53;3.15;;;1.30;;
17854;SDS011;9053;53.358;6.382;2022-07-22T05:34:22;3.72;;;1.40;;
17854;SDS011;9053;53.358;6.382;2022-07-22T05:36:55;2.15;;;1.10;;
17854;SDS011;9053;53.358;6.382;2022-07-22T05:39:25;2.28;;;1.17;;
17854;SDS011;9053;53.358;6.382;2022-07-22T05:41:54;2.30;;;0.88;;
17854;SDS011;9053;53.358;6.382;2022-07-22T05:44:24;3.33;;;1.33;;
17854;SDS011;9053;53.358;6.382;2022-07-22T05:46:54;2.17;;;1.10;;
17854;SDS011;9053;53.358;6.382;2022-07-22T05:49:24;1.90;;;1.30;;
17854;SDS011;9053;53.358;6.382;2022-07-22T05:51:56;2.42;;;1.10;;
17854;SDS011;9053;53.358;6.382;2022-07-22T05:54:27;2.35;;;1.45;;
17854;SDS011;9053;53.358;6.382;2022-07-22T05:56:57;3.20;;;1.17;;
17854;SDS011;9053;53.358;6.382;2022-07-22T05:59:26;3.20;;;0.80;;
17854;SDS011;9053;53.358;6.382;2022-07-22T06:01:56;2.50;;;1.30;;
17854;SDS011;9053;53.358;6.382;2022-07-22T06:04:26;1.73;;;1.00;;
17854;SDS011;9053;53.358;6.382;2022-07-22T06:06:59;2.65;;;1.13;;
17854;SDS011;9053;53.358;6.382;2022-07-22T06:09:28;1.88;;;0.90;;
17854;SDS011;9053;53.358;6.382;2022-07-22T06:11:58;2.88;;;1.00;;
17854;SDS011;9053;53.358;6.382;2022-07-22T06:14:28;2.38;;;1.00;;
17854;SDS011;9053;53.358;6.382;2022-07-22T06:16:58;2.67;;;1.20;;
17854;SDS011;9053;53.358;6.382;2022-07-22T06:19:28;1.67;;;1.00;;
17854;SDS011;9053;53.358;6.382;2022-07-22T06:22:01;2.78;;;1.10;;
17854;SDS011;9053;53.358;6.382;2022-07-22T06:24:31;2.15;;;0.85;;
17854;SDS011;9053;53.358;6.382;2022-07-22T06:27:00;1.85;;;0.90;;
17854;SDS011;9053;53.358;6.382;2022-07-22T06:29:30;1.02;;;0.90;;
17854;SDS011;9053;53.358;6.382;2022-07-22T06:32:00;2.53;;;1.00;;
17854;SDS011;9053;53.358;6.382;2022-07-22T06:34:30;2.35;;;1.10;;
17854;SDS011;9053;53.358;6.382;2022-07-22T06:37:03;2.45;;;1.20;;
17854;SDS011;9053;53.358;6.382;2022-07-22T06:39:36;3.83;;;1.17;;
17854;SDS011;9053;53.358;6.382;2022-07-22T06:42:05;1.70;;;1.02;;
17854;SDS011;9053;53.358;6.382;2022-07-22T06:44:36;1.98;;;0.93;;
17854;SDS011;9053;53.358;6.382;2022-07-22T06:47:06;2.03;;;0.95;;
17854;SDS011;9053;53.358;6.382;2022-07-22T06:49:37;2.83;;;1.20;;
17854;SDS011;9053;53.358;6.382;2022-07-22T06:52:12;2.50;;;0.95;;
17854;SDS011;9053;53.358;6.382;2022-07-22T06:54:41;1.70;;;0.90;;
17854;SDS011;9053;53.358;6.382;2022-07-22T06:57:11;1.42;;;0.77;;
17854;SDS011;9053;53.358;6.382;2022-07-22T06:59:41;2.55;;;1.02;;
17854;SDS011;9053;53.358;6.382;2022-07-22T07:02:11;3.28;;;1.10;;
17854;SDS011;9053;53.358;6.382;2022-07-22T07:04:41;1.85;;;0.90;;
17854;SDS011;9053;53.358;6.382;2022-07-22T07:07:14;1.65;;;0.93;;
17854;SDS011;9053;53.358;6.382;2022-07-22T07:09:46;2.53;;;1.10;;
17854;SDS011;9053;53.358;6.382;2022-07-22T07:12:16;1.92;;;0.90;;
17854;SDS011;9053;53.358;6.382;2022-07-22T07:14:47;2.92;;;1.20;;
17854;SDS011;9053;53.358;6.382;2022-07-22T07:17:37;3.83;;;1.20;;
17854;SDS011;9053;53.358;6.382;2022-07-22T07:20:07;3.53;;;0.93;;
17854;SDS011;9053;53.358;6.382;2022-07-22T07:22:40;4.25;;;1.10;;
17854;SDS011;9053;53.358;6.382;2022-07-22T07:25:10;3.08;;;1.10;;
17854;SDS011;9053;53.358;6.382;2022-07-22T07:27:48;1.02;;;0.90;;
17854;SDS011;9053;53.358;6.382;2022-07-22T07:30:19;3.63;;;1.30;;
17854;SDS011;9053;53.358;6.382;2022-07-22T07:32:50;2.33;;;1.13;;
17854;SDS011;9053;53.358;6.382;2022-07-22T07:35:20;1.88;;;1.00;;
17854;SDS011;9053;53.358;6.382;2022-07-22T07:37:58;2.28;;;1.10;;
17854;SDS011;9053;53.358;6.382;2022-07-22T07:40:28;2.92;;;1.17;;
17854;SDS011;9053;53.358;6.382;2022-07-22T07:42:58;2.65;;;1.17;;
17854;SDS011;9053;53.358;6.382;2022-07-22T07:45:29;1.95;;;0.98;;
17854;SDS011;9053;53.358;6.382;2022-07-22T07:47:59;4.38;;;1.45;;
17854;SDS011;9053;53.358;6.382;2022-07-22T07:50:30;3.17;;;1.20;;
17854;SDS011;9053;53.358;6.382;2022-07-22T07:53:02;2.28;;;1.15;;
17854;SDS011;9053;53.358;6.382;2022-07-22T07:55:33;3.03;;;1.20;;
17854;SDS011;9053;53.358;6.382;2022-07-22T07:58:06;4.93;;;1.42;;
17854;SDS011;9053;53.358;6.382;2022-07-22T08:00:36;3.60;;;1.10;;
17854;SDS011;9053;53.358;6.382;2022-07-22T08:03:08;2.67;;;0.98;;
17854;SDS011;9053;53.358;6.382;2022-07-22T08:05:38;2.88;;;1.02;;
17854;SDS011;9053;53.358;6.382;2022-07-22T08:08:11;1.90;;;1.10;;
17854;SDS011;9053;53.358;6.382;2022-07-22T08:10:41;3.78;;;1.30;;
17854;SDS011;9053;53.358;6.382;2022-07-22T08:13:24;4.22;;;1.10;;
17854;SDS011;9053;53.358;6.382;2022-07-22T08:15:54;2.15;;;0.90;;
17854;SDS011;9053;53.358;6.382;2022-07-22T08:18:24;1.95;;;0.90;;
17854;SDS011;9053;53.358;6.382;2022-07-22T08:20:55;2.08;;;0.98;;
17854;SDS011;9053;53.358;6.382;2022-07-22T08:23:29;1.55;;;0.82;;
17854;SDS011;9053;53.358;6.382;2022-07-22T08:25:58;2.05;;;1.00;;
17854;SDS011;9053;53.358;6.382;2022-07-22T08:28:28;2.42;;;0.90;;
17854;SDS011;9053;53.358;6.382;2022-07-22T08:30:58;2.65;;;1.17;;
17854;SDS011;9053;53.358;6.382;2022-07-22T08:33:31;2.90;;;0.88;;
17854;SDS011;9053;53.358;6.382;2022-07-22T08:36:01;4.68;;;1.45;;
17854;SDS011;9053;53.358;6.382;2022-07-22T08:38:34;1.73;;;0.90;;
17854;SDS011;9053;53.358;6.382;2022-07-22T08:41:05;4.47;;;1.23;;
17854;SDS011;9053;53.358;6.382;2022-07-22T08:43:35;3.28;;;1.33;;
17854;SDS011;9053;53.358;6.382;2022-07-22T08:46:10;2.70;;;1.10;;
17854;SDS011;9053;53.358;6.382;2022-07-22T08:48:40;3.00;;;0.90;;
17854;SDS011;9053;53.358;6.382;2022-07-22T08:51:10;1.92;;;0.80;;
17854;SDS011;9053;53.358;6.382;2022-07-22T08:53:44;3.30;;;1.10;;
17854;SDS011;9053;53.358;6.382;2022-07-22T08:56:13;3.08;;;1.00;;
17854;SDS011;9053;53.358;6.382;2022-07-22T08:58:43;2.03;;;0.90;;
17854;SDS011;9053;53.358;6.382;2022-07-22T09:01:14;1.58;;;0.82;;
17854;SDS011;9053;53.358;6.382;2022-07-22T09:03:46;1.27;;;0.88;;
17854;SDS011;9053;53.358;6.382;2022-07-22T09:06:18;1.05;;;0.80;;
17854;SDS011;9053;53.358;6.382;2022-07-22T09:08:53;2.28;;;0.90;;
17854;SDS011;9053;53.358;6.382;2022-07-22T09:11:25;1.00;;;0.80;;
17854;SDS011;9053;53.358;6.382;2022-07-22T09:13:57;4.13;;;0.85;;
17854;SDS011;9053;53.358;6.382;2022-07-22T09:16:38;2.83;;;0.90;;
17854;SDS011;9053;53.358;6.382;2022-07-22T09:19:09;1.35;;;0.77;;
17854;SDS011;9053;53.358;6.382;2022-07-22T09:21:40;0.85;;;0.60;;
17854;SDS011;9053;53.358;6.382;2022-07-22T09:24:28;1.67;;;0.90;;
17854;SDS011;9053;53.358;6.382;2022-07-22T09:26:59;4.22;;;1.00;;
17854;SDS011;9053;53.358;6.382;2022-07-22T09:29:29;3.13;;;1.10;;
17854;SDS011;9053;53.358;6.382;2022-07-22T09:32:03;2.38;;;1.10;;
17854;SDS011;9053;53.358;6.382;2022-07-22T09:34:37;2.63;;;1.10;;
17854;SDS011;9053;53.358;6.382;2022-07-22T09:37:07;1.42;;;0.80;;
17854;SDS011;9053;53.358;6.382;2022-07-22T09:39:39;2.28;;;0.85;;
17854;SDS011;9053;53.358;6.382;2022-07-22T09:42:09;2.28;;;1.05;;
17854;SDS011;9053;53.358;6.382;2022-07-22T09:44:42;4.03;;;0.95;;
17854;SDS011;9053;53.358;6.382;2022-07-22T09:47:26;2.38;;;0.77;;
17854;SDS011;9053;53.358;6.382;2022-07-22T09:50:05;2.28;;;0.73;;
17854;SDS011;9053;53.358;6.382;2022-07-22T09:52:43;1.48;;;0.70;;
17854;SDS011;9053;53.358;6.382;2022-07-22T09:55:17;3.00;;;0.73;;
17854;SDS011;9053;53.358;6.382;2022-07-22T09:57:49;1.35;;;0.73;;
17854;SDS011;9053;53.358;6.382;2022-07-22T10:00:20;1.75;;;0.60;;
17854;SDS011;9053;53.358;6.382;2022-07-22T10:02:53;3.30;;;0.70;;
17854;SDS011;9053;53.358;6.382;2022-07-22T10:05:25;0.75;;;0.60;;
17854;SDS011;9053;53.358;6.382;2022-07-22T10:07:56;1.73;;;0.60;;
17854;SDS011;9053;53.358;6.382;2022-07-22T10:10:30;1.00;;;0.50;;
17854;SDS011;9053;53.358;6.382;2022-07-22T10:13:01;1.60;;;0.50;;
17854;SDS011;9053;53.358;6.382;2022-07-22T10:15:32;0.80;;;0.60;;
17854;SDS011;9053;53.358;6.382;2022-07-22T10:18:04;0.77;;;0.50;;
17854;SDS011;9053;53.358;6.382;2022-07-22T10:20:36;1.08;;;0.70;;
17854;SDS011;9053;53.358;6.382;2022-07-22T10:23:06;2.25;;;0.77;;
17854;SDS011;9053;53.358;6.382;2022-07-22T10:25:53;1.00;;;0.60;;
17854;SDS011;9053;53.358;6.382;2022-07-22T10:28:25;1.83;;;0.70;;
17854;SDS011;9053;53.358;6.382;2022-07-22T10:31:16;0.90;;;0.60;;
17854;SDS011;9053;53.358;6.382;2022-07-22T10:33:48;0.98;;;0.77;;
17854;SDS011;9053;53.358;6.382;2022-07-22T10:36:29;1.42;;;0.52;;
17854;SDS011;9053;53.358;6.382;2022-07-22T10:39:01;1.58;;;0.70;;
17854;SDS011;9053;53.358;6.382;2022-07-22T10:41:37;2.20;;;0.80;;
17854;SDS011;9053;53.358;6.382;2022-07-22T10:44:07;0.88;;;0.50;;
17854;SDS011;9053;53.358;6.382;2022-07-22T10:46:47;1.48;;;0.65;;
17854;SDS011;9053;53.358;6.382;2022-07-22T10:49:18;1.13;;;0.40;;
17854;SDS011;9053;53.358;6.382;2022-07-22T10:57:50;1.63;;;0.68;;
17854;SDS011;9053;53.358;6.382;2022-07-22T11:00:20;0.88;;;0.60;;
17854;SDS011;9053;53.358;6.382;2022-07-22T11:02:49;1.40;;;0.57;;
17854;SDS011;9053;53.358;6.382;2022-07-22T11:05:24;1.40;;;0.70;;
17854;SDS011;9053;53.358;6.382;2022-07-22T11:07:55;2.25;;;0.70;;
17854;SDS011;9053;53.358;6.382;2022-07-22T11:10:25;2.10;;;0.80;;
17854;SDS011;9053;53.358;6.382;2022-07-22T11:12:58;1.17;;;0.57;;
17854;SDS011;9053;53.358;6.382;2022-07-22T11:15:28;4.30;;;0.90;;
17854;SDS011;9053;53.358;6.382;2022-07-22T11:17:58;5.28;;;0.90;;
17854;SDS011;9053;53.358;6.382;2022-07-22T11:20:28;0.95;;;0.70;;
17854;SDS011;9053;53.358;6.382;2022-07-22T11:22:58;0.98;;;0.77;;
17854;SDS011;9053;53.358;6.382;2022-07-22T11:25:28;1.25;;;0.85;;
17854;SDS011;9053;53.358;6.382;2022-07-22T11:28:01;3.13;;;1.10;;
17854;SDS011;9053;53.358;6.382;2022-07-22T11:30:31;2.50;;;0.90;;
17854;SDS011;9053;53.358;6.382;2022-07-22T11:33:01;1.77;;;0.70;;
17854;SDS011;9053;53.358;6.382;2022-07-22T11:35:31;1.25;;;0.70;;
17854;SDS011;9053;53.358;6.382;2022-07-22T11:38:04;0.73;;;0.60;;
17854;SDS011;9053;53.358;6.382;2022-07-22T11:40:35;1.58;;;0.57;;
17854;SDS011;9053;53.358;6.382;2022-07-22T11:43:09;1.40;;;0.80;;
17854;SDS011;9053;53.358;6.382;2022-07-22T11:48:26;2.97;;;1.08;;
17854;SDS011;9053;53.358;6.382;2022-07-22T11:50:58;2.10;;;0.80;;
17854;SDS011;9053;53.358;6.382;2022-07-22T11:53:28;2.67;;;0.90;;
17854;SDS011;9053;53.358;6.382;2022-07-22T11:55:59;3.28;;;1.05;;
17854;SDS011;9053;53.358;6.382;2022-07-22T11:58:38;1.23;;;0.70;;
17854;SDS011;9053;53.358;6.382;2022-07-22T12:01:10;2.13;;;0.80;;
17854;SDS011;9053;53.358;6.382;2022-07-22T12:03:44;2.95;;;0.75;;
17854;SDS011;9053;53.358;6.382;2022-07-22T12:06:15;1.60;;;0.70;;
17854;SDS011;9053;53.358;6.382;2022-07-22T12:08:47;2.35;;;0.80;;
17854;SDS011;9053;53.358;6.382;2022-07-22T12:11:18;3.67;;;0.90;;
17854;SDS011;9053;53.358;6.382;2022-07-22T12:13:59;1.15;;;0.77;;
17854;SDS011;9053;53.358;6.382;2022-07-22T12:16:42;0.88;;;0.70;;
17854;SDS011;9053;53.358;6.382;2022-07-22T12:19:13;1.90;;;0.75;;
17854;SDS011;9053;53.358;6.382;2022-07-22T12:21:52;1.90;;;0.85;;
17854;SDS011;9053;53.358;6.382;2022-07-22T12:24:26;1.63;;;0.80;;
17854;SDS011;9053;53.358;6.382;2022-07-22T12:26:59;2.20;;;0.85;;
17854;SDS011;9053;53.358;6.382;2022-07-22T12:29:41;1.63;;;0.80;;
17854;SDS011;9053;53.358;6.382;2022-07-22T12:32:15;1.77;;;0.80;;
17854;SDS011;9053;53.358;6.382;2022-07-22T12:37:25;2.25;;;0.73;;
17854;SDS011;9053;53.358;6.382;2022-07-22T12:39:56;1.95;;;0.82;;
17854;SDS011;9053;53.358;6.382;2022-07-22T12:42:29;1.65;;;0.80;;
17854;SDS011;9053;53.358;6.382;2022-07-22T12:45:04;1.35;;;0.80;;
17854;SDS011;9053;53.358;6.382;2022-07-22T12:47:42;1.58;;;0.80;;
17854;SDS011;9053;53.358;6.382;2022-07-22T12:50:19;2.17;;;0.80;;
17854;SDS011;9053;53.358;6.382;2022-07-22T12:52:52;1.92;;;0.80;;
17854;SDS011;9053;53.358;6.382;2022-07-22T12:55:43;0.98;;;0.60;;
17854;SDS011;9053;53.358;6.382;2022-07-22T12:58:15;1.88;;;0.75;;
17854;SDS011;9053;53.358;6.382;2022-07-22T13:00:49;4.00;;;1.17;;
17854;SDS011;9053;53.358;6.382;2022-07-22T13:03:20;2.08;;;0.80;;
17854;SDS011;9053;53.358;6.382;2022-07-22T13:05:53;1.58;;;0.70;;
17854;SDS011;9053;53.358;6.382;2022-07-22T13:08:24;1.10;;;0.70;;
17854;SDS011;9053;53.358;6.382;2022-07-22T13:11:11;0.52;;;0.52;;
17854;SDS011;9053;53.358;6.382;2022-07-22T13:13:41;1.15;;;0.70;;
17854;SDS011;9053;53.358;6.382;2022-07-22T13:16:14;1.70;;;0.70;;
17854;SDS011;9053;53.358;6.382;2022-07-22T13:18:44;1.20;;;0.60;;
17854;SDS011;9053;53.358;6.382;2022-07-22T13:21:14;1.48;;;0.75;;
17854;SDS011;9053;53.358;6.382;2022-07-22T13:23:44;2.65;;;0.95;;
17854;SDS011;9053;53.358;6.382;2022-07-22T13:26:14;0.90;;;0.70;;
17854;SDS011;9053;53.358;6.382;2022-07-22T13:28:44;1.95;;;0.90;;
17854;SDS011;9053;53.358;6.382;2022-07-22T13:31:16;2.80;;;0.70;;
17854;SDS011;9053;53.358;6.382;2022-07-22T13:33:46;1.00;;;0.70;;
17854;SDS011;9053;53.358;6.382;2022-07-22T13:36:16;1.48;;;0.60;;
17854;SDS011;9053;53.358;6.382;2022-07-22T13:38:45;1.13;;;0.60;;
17854;SDS011;9053;53.358;6.382;2022-07-22T13:41:15;2.20;;;0.93;;
17854;SDS011;9053;53.358;6.382;2022-07-22T13:43:46;2.22;;;0.90;;
17854;SDS011;9053;53.358;6.382;2022-07-22T13:46:19;1.05;;;0.70;;
17854;SDS011;9053;53.358;6.382;2022-07-22T13:48:49;1.55;;;0.70;;
17854;SDS011;9053;53.358;6.382;2022-07-22T13:51:19;2.05;;;0.80;;
17854;SDS011;9053;53.358;6.382;2022-07-22T13:53:49;1.10;;;0.80;;
17854;SDS011;9053;53.358;6.382;2022-07-22T13:56:21;1.88;;;1.10;;
17854;SDS011;9053;53.358;6.382;2022-07-22T13:58:51;0.90;;;0.60;;
17854;SDS011;9053;53.358;6.382;2022-07-22T14:01:24;2.40;;;0.70;;
17854;SDS011;9053;53.358;6.382;2022-07-22T14:03:53;2.42;;;0.70;;
17854;SDS011;9053;53.358;6.382;2022-07-22T14:06:24;2.55;;;0.90;;
17854;SDS011;9053;53.358;6.382;2022-07-22T14:08:54;1.13;;;0.50;;
17854;SDS011;9053;53.358;6.382;2022-07-22T14:11:24;0.55;;;0.55;;
17854;SDS011;9053;53.358;6.382;2022-07-22T14:13:53;0.85;;;0.70;;
17854;SDS011;9053;53.358;6.382;2022-07-22T14:16:26;1.33;;;0.77;;
17854;SDS011;9053;53.358;6.382;2022-07-22T14:19:25;1.00;;;0.70;;
17854;SDS011;9053;53.358;6.382;2022-07-22T14:21:55;1.35;;;0.70;;
17854;SDS011;9053;53.358;6.382;2022-07-22T14:24:25;1.42;;;0.60;;
17854;SDS011;9053;53.358;6.382;2022-07-22T14:26:55;2.05;;;0.80;;
17854;SDS011;9053;53.358;6.382;2022-07-22T14:29:24;0.85;;;0.60;;
17854;SDS011;9053;53.358;6.382;2022-07-22T14:31:57;2.75;;;0.80;;
17854;SDS011;9053;53.358;6.382;2022-07-22T14:34:27;1.42;;;0.70;;
17854;SDS011;9053;53.358;6.382;2022-07-22T14:36:57;3.92;;;0.88;;
17854;SDS011;9053;53.358;6.382;2022-07-22T14:39:27;1.92;;;0.80;;
17854;SDS011;9053;53.358;6.382;2022-07-22T14:41:56;2.42;;;0.70;;
17854;SDS011;9053;53.358;6.382;2022-07-22T14:44:26;1.92;;;0.70;;
17854;SDS011;9053;53.358;6.382;2022-07-22T14:46:58;0.98;;;0.70;;
17854;SDS011;9053;53.358;6.382;2022-07-22T14:49:28;3.28;;;0.90;;
17854;SDS011;9053;53.358;6.382;2022-07-22T14:51:58;2.63;;;0.88;;
17854;SDS011;9053;53.358;6.382;2022-07-22T14:54:28;1.10;;;0.70;;
17854;SDS011;9053;53.358;6.382;2022-07-22T14:56:57;1.95;;;0.88;;
17854;SDS011;9053;53.358;6.382;2022-07-22T14:59:27;2.17;;;0.80;;
17854;SDS011;9053;53.358;6.382;2022-07-22T15:02:00;1.23;;;0.60;;
17854;SDS011;9053;53.358;6.382;2022-07-22T15:04:29;1.92;;;0.80;;
17854;SDS011;9053;53.358;6.382;2022-07-22T15:06:59;2.90;;;0.75;;
17854;SDS011;9053;53.358;6.382;2022-07-22T15:09:29;1.52;;;0.70;;
17854;SDS011;9053;53.358;6.382;2022-07-22T15:11:59;2.95;;;0.70;;
17854;SDS011;9053;53.358;6.382;2022-07-22T15:14:29;2.17;;;0.80;;
17854;SDS011;9053;53.358;6.382;2022-07-22T15:17:02;1.55;;;0.50;;
17854;SDS011;9053;53.358;6.382;2022-07-22T15:19:31;0.80;;;0.70;;
17854;SDS011;9053;53.358;6.382;2022-07-22T15:22:01;1.13;;;0.80;;
17854;SDS011;9053;53.358;6.382;2022-07-22T15:24:31;2.63;;;0.80;;
17854;SDS011;9053;53.358;6.382;2022-07-22T15:27:01;1.42;;;0.60;;
17854;SDS011;9053;53.358;6.382;2022-07-22T15:29:30;1.05;;;0.60;;
17854;SDS011;9053;53.358;6.382;2022-07-22T15:32:03;0.88;;;0.68;;
17854;SDS011;9053;53.358;6.382;2022-07-22T15:34:33;1.35;;;0.70;;
17854;SDS011;9053;53.358;6.382;2022-07-22T15:37:03;2.17;;;0.50;;